Time;durP1;ratioP1;P1;durP2;ratioP2;P2;SDS_P1;SDS_P2;PMS_P1;PMS_P2;Temp;Humidity;BMP_temperature;BMP_pressure;BME280_temperature;BME280_humidity;BME280_pressure;Samples;Min_cycle;Max_cycle;Signal;HPM_P1;HPM_P2
2022/10/01 00:00:49;;;;;;;5.15;1.58;;;;;;;;;;5035638;28;20030;-23
2022/10/01 00:03:15;;;;;;;5.00;1.65;;;;;;;;;;5035378;28;20053;-23
2022/10/01 00:05:42;;;;;;;7.78;1.63;;;;;;;;;;5035892;28;20028;-22
2022/10/01 00:08:08;;;;;;;7.03;1.70;;;;;;;;;;5018142;28;20462;-30
2022/10/01 00:10:35;;;;;;;6.20;2.20;;;;;;;;;;5036080;28;20034;-22
2022/10/01 00:13:02;;;;;;;4.00;1.92;;;;;;;;;;5017983;28;20039;-23
2022/10/01 00:15:28;;;;;;;2.88;1.77;;;;;;;;;;5035361;28;20044;-23
2022/10/01 00:17:54;;;;;;;3.05;1.83;;;;;;;;;;5035296;28;20481;-26
2022/10/01 00:20:21;;;;;;;4.60;1.75;;;;;;;;;;5035608;28;20030;-23
2022/10/01 00:22:47;;;;;;;6.32;1.95;;;;;;;;;;5035248;28;20340;-23
2022/10/01 00:25:13;;;;;;;3.95;1.52;;;;;;;;;;5035198;28;20045;-22
2022/10/01 00:27:39;;;;;;;3.38;1.83;;;;;;;;;;5035209;28;20108;-23
2022/10/01 00:30:06;;;;;;;4.80;2.05;;;;;;;;;;5035169;28;20045;-23
2022/10/01 00:32:33;;;;;;;3.75;1.50;;;;;;;;;;5035040;28;20033;-24
2022/10/01 00:35:00;;;;;;;3.95;1.80;;;;;;;;;;5035016;28;20104;-25
2022/10/01 00:37:27;;;;;;;2.97;1.90;;;;;;;;;;5035331;28;20026;-23
2022/10/01 00:39:53;;;;;;;1.98;1.20;;;;;;;;;;5035286;28;20046;-23
2022/10/01 00:42:24;;;;;;;7.47;1.65;;;;;;;;;;5035174;28;20446;-23
2022/10/01 00:44:52;;;;;;;2.28;1.83;;;;;;;;;;5034881;28;20039;-23
2022/10/01 00:47:25;;;;;;;6.40;1.40;;;;;;;;;;5035180;28;20417;-25
2022/10/01 00:49:54;;;;;;;3.55;1.80;;;;;;;;;;5035144;28;20491;-23
2022/10/01 00:52:23;;;;;;;3.85;1.60;;;;;;;;;;5034734;28;20044;-23
2022/10/01 00:54:52;;;;;;;2.20;1.60;;;;;;;;;;5034468;28;20033;-23
2022/10/01 00:57:21;;;;;;;5.57;1.52;;;;;;;;;;5035044;28;20017;-23
2022/10/01 00:59:49;;;;;;;4.13;1.55;;;;;;;;;;5034978;28;20048;-22
2022/10/01 01:02:15;;;;;;;4.70;2.38;;;;;;;;;;5034597;28;20086;-22
2022/10/01 01:04:42;;;;;;;3.25;1.52;;;;;;;;;;5034442;28;20053;-22
2022/10/01 01:07:09;;;;;;;3.13;1.33;;;;;;;;;;5034852;28;20441;-22
2022/10/01 01:09:37;;;;;;;3.67;1.88;;;;;;;;;;5034599;28;20365;-22
2022/10/01 01:12:14;;;;;;;3.67;1.73;;;;;;;;;;5034807;28;20087;-21
2022/10/01 01:14:40;;;;;;;7.32;2.10;;;;;;;;;;5034434;28;20029;-23
2022/10/01 01:17:10;;;;;;;4.22;1.48;;;;;;;;;;5017146;28;20064;-22
2022/10/01 01:19:51;;;;;;;3.97;1.80;;;;;;;;;;5034763;28;20021;-22
2022/10/01 01:22:21;;;;;;;5.95;2.92;;;;;;;;;;5034654;28;20026;-22
2022/10/01 01:24:49;;;;;;;7.72;1.55;;;;;;;;;;5034975;28;20454;-22
2022/10/01 01:27:15;;;;;;;5.60;1.33;;;;;;;;;;5034450;28;20040;-23
2022/10/01 01:29:46;;;;;;;2.50;1.42;;;;;;;;;;5034678;28;20034;-23
2022/10/01 01:32:17;;;;;;;2.75;1.70;;;;;;;;;;5034816;28;20037;-23
2022/10/01 01:34:43;;;;;;;;;;;;;;;;;;5035320;28;20034;-22
2022/10/01 01:37:12;;;;;;;3.80;1.55;;;;;;;;;;5016986;28;20254;-23
2022/10/01 01:39:40;;;;;;;6.15;2.30;;;;;;;;;;5034563;28;20049;-22
2022/10/01 01:42:09;;;;;;;3.75;1.50;;;;;;;;;;5034247;28;20068;-22
2022/10/01 01:44:38;;;;;;;5.70;1.80;;;;;;;;;;5034540;28;20332;-22
2022/10/01 01:47:06;;;;;;;4.93;1.50;;;;;;;;;;5034245;28;20029;-23
2022/10/01 01:49:33;;;;;;;2.97;1.42;;;;;;;;;;5034474;28;20060;-22
2022/10/01 01:52:03;;;;;;;4.65;1.30;;;;;;;;;;5034429;28;20041;-22
2022/10/01 01:54:30;;;;;;;3.33;2.03;;;;;;;;;;5034442;28;20052;-22
2022/10/01 01:56:57;;;;;;;6.40;1.42;;;;;;;;;;5016808;28;20037;-22
2022/10/01 01:59:24;;;;;;;4.60;1.45;;;;;;;;;;5034113;28;20184;-22
2022/10/01 02:01:50;;;;;;;5.25;1.38;;;;;;;;;;5034321;28;20349;-21
2022/10/01 02:04:49;;;;;;;4.93;1.40;;;;;;;;;;5033828;28;20057;-23
2022/10/01 02:07:17;;;;;;;5.75;1.60;;;;;;;;;;4984294;28;20046;-23
2022/10/01 02:10:04;;;;;;;6.13;1.80;;;;;;;;;;5020410;28;20482;-22
2022/10/01 02:12:30;;;;;;;3.10;1.20;;;;;;;;;;4988605;28;20394;-23
2022/10/01 02:14:56;;;;;;;5.88;1.77;;;;;;;;;;5037617;28;20034;-22
2022/10/01 02:17:34;;;;;;;9.45;1.40;;;;;;;;;;5037649;28;20079;-22
2022/10/01 02:20:24;;;;;;;2.55;1.48;;;;;;;;;;5037596;28;20083;-22
2022/10/01 02:22:53;;;;;;;4.22;1.60;;;;;;;;;;4992439;28;20034;-22
2022/10/01 02:25:25;;;;;;;2.75;2.42;;;;;;;;;;5037498;28;20064;-22
2022/10/01 02:28:03;;;;;;;6.97;2.00;;;;;;;;;;5037579;28;20033;-21
2022/10/01 02:30:30;;;;;;;2.17;1.08;;;;;;;;;;5037403;28;20059;-22
2022/10/01 02:32:58;;;;;;;6.78;1.52;;;;;;;;;;5037248;28;20466;-22
2022/10/01 02:35:25;;;;;;;4.22;1.38;;;;;;;;;;5037509;28;20037;-22
2022/10/01 02:37:52;;;;;;;6.72;2.08;;;;;;;;;;5037531;28;20334;-22
2022/10/01 02:40:20;;;;;;;2.17;1.77;;;;;;;;;;5037495;28;20363;-23
2022/10/01 02:42:49;;;;;;;2.35;1.15;;;;;;;;;;5037079;28;20032;-22
2022/10/01 02:45:17;;;;;;;1.85;1.20;;;;;;;;;;5037143;28;20029;-22
2022/10/01 02:47:49;;;;;;;2.17;1.30;;;;;;;;;;5037138;28;20049;-22
2022/10/01 02:50:15;;;;;;;5.07;1.15;;;;;;;;;;5037313;28;20040;-22
2022/10/01 02:52:49;;;;;;;2.92;1.08;;;;;;;;;;5037535;28;20033;-22
2022/10/01 02:55:16;;;;;;;5.82;1.63;;;;;;;;;;5037215;28;20473;-21
2022/10/01 02:57:42;;;;;;;3.10;1.30;;;;;;;;;;5036943;28;20343;-22
2022/10/01 03:00:10;;;;;;;3.88;1.40;;;;;;;;;;5036908;28;20071;-22
2022/10/01 03:02:36;;;;;;;3.45;1.50;;;;;;;;;;5037028;28;20115;-22
2022/10/01 03:05:03;;;;;;;6.72;1.80;;;;;;;;;;5037324;28;20033;-24
2022/10/01 03:07:30;;;;;;;2.85;1.20;;;;;;;;;;5037011;28;20064;-23
2022/10/01 03:09:56;;;;;;;5.47;1.77;;;;;;;;;;5036933;28;20037;-23
2022/10/01 03:12:23;;;;;;;2.53;1.10;;;;;;;;;;5036514;28;20029;-22
2022/10/01 03:14:49;;;;;;;3.63;1.40;;;;;;;;;;5036784;28;20095;-23
2022/10/01 03:17:16;;;;;;;2.75;1.02;;;;;;;;;;5036323;28;20021;-22
2022/10/01 03:19:42;;;;;;;2.25;1.20;;;;;;;;;;5036489;28;20048;-22
2022/10/01 03:22:11;;;;;;;2.92;1.48;;;;;;;;;;5036431;28;20105;-22
2022/10/01 03:24:37;;;;;;;4.68;1.33;;;;;;;;;;5036422;28;20437;-22
2022/10/01 03:27:03;;;;;;;3.67;1.40;;;;;;;;;;5036604;28;20370;-22
2022/10/01 03:29:29;;;;;;;3.22;1.23;;;;;;;;;;5036329;28;20029;-22
2022/10/01 03:31:56;;;;;;;2.47;1.25;;;;;;;;;;5036202;28;20049;-22
2022/10/01 03:34:22;;;;;;;3.30;1.25;;;;;;;;;;5036423;28;20511;-22
2022/10/01 03:36:51;;;;;;;2.80;1.40;;;;;;;;;;5036201;28;20044;-22
2022/10/01 03:39:17;;;;;;;5.32;1.38;;;;;;;;;;5036677;28;20036;-23
2022/10/01 03:41:43;;;;;;;1.58;1.27;;;;;;;;;;5036337;28;20341;-23
2022/10/01 03:44:09;;;;;;;1.85;1.52;;;;;;;;;;5035926;28;20029;-22
2022/10/01 03:46:36;;;;;;;3.13;1.15;;;;;;;;;;5035988;28;20366;-22
2022/10/01 03:49:03;;;;;;;2.63;1.35;;;;;;;;;;5035971;28;20524;-24
2022/10/01 03:51:29;;;;;;;4.72;1.63;;;;;;;;;;5036388;28;20067;-22
2022/10/01 03:53:56;;;;;;;1.27;1.13;;;;;;;;;;5035614;28;20021;-21
2022/10/01 03:56:23;;;;;;;5.00;1.50;;;;;;;;;;5035804;28;20029;-22
2022/10/01 03:58:49;;;;;;;1.70;1.45;;;;;;;;;;5035949;28;20386;-22
2022/10/01 04:01:15;;;;;;;1.85;0.85;;;;;;;;;;5035585;28;20516;-23
2022/10/01 04:03:42;;;;;;;2.63;1.00;;;;;;;;;;5035398;28;20095;-22
2022/10/01 04:06:09;;;;;;;1.58;1.08;;;;;;;;;;5035489;28;20030;-22
2022/10/01 04:08:35;;;;;;;1.63;1.15;;;;;;;;;;5035461;28;20026;-22
2022/10/01 04:11:01;;;;;;;2.05;1.10;;;;;;;;;;5035458;28;20053;-22
2022/10/01 04:13:28;;;;;;;2.17;1.42;;;;;;;;;;5035615;28;20025;-22
2022/10/01 04:15:55;;;;;;;2.72;1.50;;;;;;;;;;5035353;28;20041;-22
2022/10/01 04:18:21;;;;;;;4.50;1.50;;;;;;;;;;5035291;28;20037;-22
2022/10/01 04:20:47;;;;;;;2.80;1.25;;;;;;;;;;5035548;28;20021;-22
2022/10/01 04:23:14;;;;;;;1.60;1.23;;;;;;;;;;5035414;28;20025;-25
2022/10/01 04:25:40;;;;;;;1.83;1.15;;;;;;;;;;5035186;28;20026;-26
2022/10/01 04:28:08;;;;;;;2.08;1.08;;;;;;;;;;5034311;28;20017;-23
2022/10/01 04:30:35;;;;;;;3.85;1.30;;;;;;;;;;5035126;28;20386;-23
2022/10/01 04:33:02;;;;;;;1.95;0.93;;;;;;;;;;5035029;28;20417;-23
2022/10/01 04:35:28;;;;;;;1.48;1.10;;;;;;;;;;5035199;28;20052;-22
2022/10/01 04:37:55;;;;;;;8.88;2.33;;;;;;;;;;5035316;28;20417;-22
2022/10/01 04:40:22;;;;;;;2.05;1.40;;;;;;;;;;5034943;28;20036;-26
2022/10/01 04:42:48;;;;;;;1.63;1.38;;;;;;;;;;5035125;28;20025;-22
2022/10/01 04:45:14;;;;;;;4.35;1.30;;;;;;;;;;5034789;28;20104;-22
2022/10/01 04:47:47;;;;;;;1.63;1.45;;;;;;;;;;5034737;28;20025;-22
2022/10/01 04:50:14;;;;;;;3.75;1.48;;;;;;;;;;5034709;28;20029;-23
2022/10/01 04:52:41;;;;;;;3.58;1.20;;;;;;;;;;5017817;28;20029;-23
2022/10/01 04:55:07;;;;;;;4.75;1.15;;;;;;;;;;5017188;28;20033;-23
2022/10/01 04:57:33;;;;;;;14.52;3.10;;;;;;;;;;5034663;28;20071;-23
2022/10/01 05:00:00;;;;;;;2.50;1.58;;;;;;;;;;5034580;28;20036;-22
2022/10/01 05:02:28;;;;;;;1.88;1.40;;;;;;;;;;5034606;28;20036;-23
2022/10/01 05:04:54;;;;;;;4.30;1.83;;;;;;;;;;5034480;28;20041;-22
2022/10/01 05:07:21;;;;;;;2.33;1.70;;;;;;;;;;5034849;28;20037;-23
2022/10/01 05:09:48;;;;;;;9.50;1.25;;;;;;;;;;5034795;28;20036;-23
2022/10/01 05:12:14;;;;;;;1.70;1.10;;;;;;;;;;5034491;28;20041;-24
2022/10/01 05:14:40;;;;;;;4.72;1.10;;;;;;;;;;5034300;28;20033;-25
2022/10/01 05:17:06;;;;;;;2.97;1.45;;;;;;;;;;5034440;28;20033;-23
2022/10/01 05:19:33;;;;;;;6.88;2.17;;;;;;;;;;5034404;28;20064;-23
2022/10/01 05:21:59;;;;;;;2.83;1.58;;;;;;;;;;5034194;28;20116;-23
2022/10/01 05:24:25;;;;;;;6.53;1.50;;;;;;;;;;5034663;28;20105;-23
2022/10/01 05:26:54;;;;;;;2.60;1.35;;;;;;;;;;5034656;28;20017;-23
2022/10/01 05:29:21;;;;;;;4.18;1.50;;;;;;;;;;5034605;28;20037;-23
2022/10/01 05:31:48;;;;;;;3.17;1.17;;;;;;;;;;5034190;28;20108;-23
2022/10/01 05:34:14;;;;;;;5.47;1.23;;;;;;;;;;5034153;28;20494;-23
2022/10/01 05:36:40;;;;;;;6.65;1.70;;;;;;;;;;5034248;28;20447;-23
2022/10/01 05:39:06;;;;;;;9.27;1.98;;;;;;;;;;5035052;28;20021;-25
2022/10/01 05:41:32;;;;;;;6.13;1.88;;;;;;;;;;5021337;28;20355;-23
2022/10/01 05:43:59;;;;;;;13.90;1.83;;;;;;;;;;5038193;28;20036;-24
2022/10/01 05:46:25;;;;;;;13.80;2.42;;;;;;;;;;5038373;28;20021;-24
2022/10/01 05:48:51;;;;;;;3.90;1.63;;;;;;;;;;5038114;28;20060;-22
2022/10/01 05:51:18;;;;;;;4.63;1.80;;;;;;;;;;5038300;28;20415;-23
2022/10/01 05:53:46;;;;;;;11.68;1.70;;;;;;;;;;5037859;28;20100;-23
2022/10/01 05:56:12;;;;;;;13.35;1.80;;;;;;;;;;5020533;28;20401;-23
2022/10/01 05:58:38;;;;;;;14.40;1.38;;;;;;;;;;5038445;28;20401;-25
2022/10/01 06:01:04;;;;;;;6.85;1.60;;;;;;;;;;5038051;28;20030;-23
2022/10/01 06:03:30;;;;;;;15.95;2.58;;;;;;;;;;5037736;28;20123;-24
2022/10/01 06:05:57;;;;;;;9.05;2.03;;;;;;;;;;5020187;28;20033;-24
2022/10/01 06:08:23;;;;;;;10.10;1.75;;;;;;;;;;5038103;28;20111;-23
2022/10/01 06:10:49;;;;;;;13.55;2.38;;;;;;;;;;5037645;28;20021;-24
2022/10/01 06:13:16;;;;;;;12.82;2.38;;;;;;;;;;5037613;28;20048;-23
2022/10/01 06:15:43;;;;;;;9.55;2.20;;;;;;;;;;5037631;28;20017;-23
2022/10/01 06:18:10;;;;;;;10.32;2.30;;;;;;;;;;5020217;28;20029;-22
2022/10/01 06:20:37;;;;;;;11.85;1.85;;;;;;;;;;5037741;28;20025;-22
2022/10/01 06:23:10;;;;;;;17.65;2.42;;;;;;;;;;5037825;28;20018;-23
2022/10/01 06:25:37;;;;;;;18.05;2.03;;;;;;;;;;5037644;28;20044;-22
2022/10/01 06:28:04;;;;;;;8.95;1.98;;;;;;;;;;5037333;28;20033;-22
2022/10/01 06:30:31;;;;;;;11.80;2.42;;;;;;;;;;5037701;28;20064;-22
2022/10/01 06:33:04;;;;;;;20.65;4.13;;;;;;;;;;5037462;28;20037;-22
2022/10/01 06:35:30;;;;;;;12.93;3.03;;;;;;;;;;5037206;28;20036;-24
2022/10/01 06:37:57;;;;;;;14.57;2.20;;;;;;;;;;5037680;28;20026;-22
2022/10/01 06:40:23;;;;;;;9.98;1.60;;;;;;;;;;5037032;28;20026;-22
2022/10/01 06:42:50;;;;;;;7.20;2.20;;;;;;;;;;5037025;28;20021;-22
2022/10/01 06:45:17;;;;;;;4.30;2.70;;;;;;;;;;5037409;28;20053;-23
2022/10/01 06:47:43;;;;;;;17.35;3.20;;;;;;;;;;5037239;28;20358;-22
2022/10/01 06:50:10;;;;;;;21.92;3.25;;;;;;;;;;5036543;28;20025;-22
2022/10/01 06:52:48;;;;;;;28.38;2.75;;;;;;;;;;5035989;28;20374;-22
2022/10/01 06:55:15;;;;;;;16.85;3.05;;;;;;;;;;5036888;28;20128;-22
2022/10/01 06:57:41;;;;;;;17.50;2.60;;;;;;;;;;5037030;28;20041;-22
2022/10/01 07:00:08;;;;;;;26.88;3.10;;;;;;;;;;5037048;28;20021;-26
2022/10/01 07:02:35;;;;;;;17.30;3.80;;;;;;;;;;5036797;28;20044;-22
2022/10/01 07:05:01;;;;;;;24.83;2.53;;;;;;;;;;5036545;28;20042;-22
2022/10/01 07:07:34;;;;;;;15.15;2.33;;;;;;;;;;5036592;28;20033;-22
2022/10/01 07:10:00;;;;;;;8.90;1.83;;;;;;;;;;5036842;28;20355;-22
2022/10/01 07:12:27;;;;;;;17.05;2.40;;;;;;;;;;5037016;28;20116;-22
2022/10/01 07:14:53;;;;;;;17.65;1.98;;;;;;;;;;5036744;28;20411;-24
2022/10/01 07:17:20;;;;;;;13.70;2.75;;;;;;;;;;5036394;28;20497;-29
2022/10/01 07:19:46;;;;;;;11.45;2.65;;;;;;;;;;5036585;28;20461;-23
2022/10/01 07:22:12;;;;;;;11.05;2.03;;;;;;;;;;5036408;28;20099;-23
2022/10/01 07:24:38;;;;;;;10.60;2.17;;;;;;;;;;5036405;28;20030;-21
2022/10/01 07:27:04;;;;;;;10.90;3.10;;;;;;;;;;5036559;28;20037;-22
2022/10/01 07:29:31;;;;;;;20.80;2.80;;;;;;;;;;5036244;28;20025;-22
2022/10/01 07:32:01;;;;;;;14.77;2.38;;;;;;;;;;5019535;28;20040;-23
2022/10/01 07:34:29;;;;;;;14.57;4.18;;;;;;;;;;5037323;28;20108;-23
2022/10/01 07:36:56;;;;;;;15.32;2.35;;;;;;;;;;5036739;28;20026;-23
2022/10/01 07:39:22;;;;;;;16.98;2.20;;;;;;;;;;5037083;28;20454;-23
2022/10/01 07:41:51;;;;;;;17.30;2.85;;;;;;;;;;5036193;28;20025;-23
2022/10/01 07:44:18;;;;;;;15.95;2.47;;;;;;;;;;5036427;28;20041;-23
2022/10/01 07:46:45;;;;;;;16.63;2.58;;;;;;;;;;5035626;28;20172;-23
2022/10/01 07:49:11;;;;;;;15.75;2.38;;;;;;;;;;5035317;28;20041;-24
2022/10/01 07:51:37;;;;;;;7.72;2.25;;;;;;;;;;5035426;28;20037;-23
2022/10/01 07:54:04;;;;;;;15.75;2.03;;;;;;;;;;5035146;28;20080;-25
2022/10/01 07:56:30;;;;;;;11.57;1.92;;;;;;;;;;5035204;28;20033;-26
2022/10/01 07:58:57;;;;;;;13.15;2.50;;;;;;;;;;5035353;28;20057;-25
2022/10/01 08:01:23;;;;;;;10.90;1.88;;;;;;;;;;5035650;28;20085;-24
2022/10/01 08:03:50;;;;;;;12.98;2.38;;;;;;;;;;5035036;28;20348;-24
2022/10/01 08:06:17;;;;;;;13.90;2.28;;;;;;;;;;5035065;28;20044;-24
2022/10/01 08:08:43;;;;;;;14.27;3.50;;;;;;;;;;5035202;28;20026;-24
2022/10/01 08:11:12;;;;;;;9.48;2.05;;;;;;;;;;5035529;28;20030;-23
2022/10/01 08:13:39;;;;;;;12.13;2.10;;;;;;;;;;5035709;28;20369;-23
2022/10/01 08:16:06;;;;;;;22.52;2.55;;;;;;;;;;5035876;28;20386;-23
2022/10/01 08:18:33;;;;;;;7.80;1.85;;;;;;;;;;5035785;28;20021;-24
2022/10/01 08:21:02;;;;;;;11.60;3.63;;;;;;;;;;5036144;28;20107;-22
2022/10/01 08:23:31;;;;;;;15.93;3.70;;;;;;;;;;5035908;28;20021;-23
2022/10/01 08:26:01;;;;;;;15.18;1.88;;;;;;;;;;5035646;28;20458;-25
2022/10/01 08:28:28;;;;;;;17.25;2.47;;;;;;;;;;5036012;28;20151;-28
2022/10/01 08:30:55;;;;;;;27.38;3.95;;;;;;;;;;5034941;28;20037;-22
2022/10/01 08:33:21;;;;;;;13.75;2.65;;;;;;;;;;5035316;28;20037;-23
2022/10/01 08:35:48;;;;;;;9.85;2.40;;;;;;;;;;5035087;28;20095;-24
2022/10/01 08:38:14;;;;;;;19.08;2.55;;;;;;;;;;5035853;28;20044;-23
2022/10/01 08:40:44;;;;;;;16.13;1.65;;;;;;;;;;5036202;28;20039;-22
2022/10/01 08:43:31;;;;;;;16.60;3.13;;;;;;;;;;5035670;28;20026;-22
2022/10/01 08:45:59;;;;;;;9.50;2.00;;;;;;;;;;5035701;28;20061;-22
2022/10/01 08:48:31;;;;;;;13.95;2.63;;;;;;;;;;5035343;28;20060;-24
2022/10/01 08:51:18;;;;;;;4.95;1.88;;;;;;;;;;5035670;28;20033;-23
2022/10/01 08:53:49;;;;;;;11.73;2.33;;;;;;;;;;5034516;28;20106;-23
2022/10/01 08:56:22;;;;;;;12.15;1.83;;;;;;;;;;5035048;28;20037;-26
2022/10/01 08:58:50;;;;;;;6.85;1.60;;;;;;;;;;5017344;28;20033;-22
2022/10/01 09:01:16;;;;;;;13.98;2.33;;;;;;;;;;5034601;28;20025;-23
2022/10/01 09:03:43;;;;;;;10.48;2.70;;;;;;;;;;5034300;28;20191;-22
2022/10/01 09:06:18;;;;;;;20.85;2.45;;;;;;;;;;5034923;28;20351;-22
2022/10/01 09:08:56;;;;;;;12.10;2.13;;;;;;;;;;5034581;28;20028;-23
2022/10/01 09:11:22;;;;;;;25.40;5.15;;;;;;;;;;5034815;28;20060;-23
2022/10/01 09:13:50;;;;;;;14.00;2.00;;;;;;;;;;5034129;28;20034;-22
2022/10/01 09:16:16;;;;;;;12.38;2.50;;;;;;;;;;5034461;28;20029;-23
2022/10/01 09:18:48;;;;;;;11.60;2.22;;;;;;;;;;5034471;28;20033;-23
2022/10/01 09:21:38;;;;;;;8.05;2.67;;;;;;;;;;5034705;28;20040;-22
2022/10/01 09:24:09;;;;;;;12.43;2.65;;;;;;;;;;5021743;28;20115;-23
2022/10/01 09:26:35;;;;;;;;;;;;;;;;;;5035052;28;20030;-24
2022/10/01 09:29:02;;;;;;;9.02;2.47;;;;;;;;;;5034370;28;19996;-23
2022/10/01 09:31:33;;;;;;;8.60;2.00;;;;;;;;;;5034223;28;20029;-23
2022/10/01 09:34:06;;;;;;;9.73;1.97;;;;;;;;;;5034132;28;20036;-22
2022/10/01 09:36:42;;;;;;;9.65;2.15;;;;;;;;;;5034288;28;20041;-21
2022/10/01 09:39:31;;;;;;;12.73;2.40;;;;;;;;;;5034260;28;20460;-24
2022/10/01 09:41:58;;;;;;;6.22;2.03;;;;;;;;;;5021733;28;20084;-23
2022/10/01 09:44:30;;;;;;;14.13;1.63;;;;;;;;;;5034119;28;20033;-23
2022/10/01 09:46:57;;;;;;;10.35;2.15;;;;;;;;;;5034505;28;20030;-22
2022/10/01 09:49:32;;;;;;;10.02;1.77;;;;;;;;;;5034902;28;20052;-22
2022/10/01 09:52:02;;;;;;;9.40;1.65;;;;;;;;;;5034328;28;20419;-26
2022/10/01 09:54:32;;;;;;;12.98;2.53;;;;;;;;;;5034035;28;20413;-22
2022/10/01 09:57:12;;;;;;;7.70;1.70;;;;;;;;;;5034192;28;20029;-22
2022/10/01 09:59:44;;;;;;;7.95;2.28;;;;;;;;;;5034137;28;20087;-22
2022/10/01 10:02:16;;;;;;;10.07;2.05;;;;;;;;;;5034106;28;20030;-22
2022/10/01 10:04:42;;;;;;;13.20;2.05;;;;;;;;;;5034245;28;20053;-22
2022/10/01 10:07:16;;;;;;;7.45;2.05;;;;;;;;;;5034489;28;20021;-22
2022/10/01 10:09:42;;;;;;;17.13;2.17;;;;;;;;;;5034136;28;20029;-24
2022/10/01 10:12:18;;;;;;;10.55;1.60;;;;;;;;;;5034008;28;20030;-23
2022/10/01 10:14:45;;;;;;;9.45;2.22;;;;;;;;;;5033927;28;20065;-22
2022/10/01 10:17:13;;;;;;;13.82;2.17;;;;;;;;;;5034002;28;20025;-23
2022/10/01 10:19:40;;;;;;;11.73;1.83;;;;;;;;;;5034144;28;20064;-22
2022/10/01 10:22:10;;;;;;;13.32;1.98;;;;;;;;;;5034386;28;20030;-22
2022/10/01 10:24:36;;;;;;;19.48;3.42;;;;;;;;;;5034026;28;20041;-25
2022/10/01 10:27:04;;;;;;;9.75;2.10;;;;;;;;;;5036059;28;20399;-23
2022/10/01 10:29:30;;;;;;;11.35;3.17;;;;;;;;;;5037683;28;20068;-24
2022/10/01 10:31:57;;;;;;;8.00;1.65;;;;;;;;;;5019795;28;20485;-25
2022/10/01 10:34:32;;;;;;;9.55;1.98;;;;;;;;;;5037729;28;20029;-22
2022/10/01 10:37:00;;;;;;;5.20;1.63;;;;;;;;;;5037574;28;20038;-22
2022/10/01 10:39:31;;;;;;;8.32;2.20;;;;;;;;;;5037238;28;20048;-22
2022/10/01 10:41:58;;;;;;;11.40;2.20;;;;;;;;;;5037150;28;20029;-22
2022/10/01 10:44:29;;;;;;;11.93;2.00;;;;;;;;;;5037202;28;20389;-22
2022/10/01 10:46:59;;;;;;;7.63;2.17;;;;;;;;;;5037451;28;20064;-25
2022/10/01 10:49:29;;;;;;;13.63;2.13;;;;;;;;;;5037037;28;20128;-24
2022/10/01 10:51:59;;;;;;;9.38;1.95;;;;;;;;;;5020732;28;20021;-22
2022/10/01 10:54:36;;;;;;;8.23;2.00;;;;;;;;;;5037752;28;20469;-21
2022/10/01 10:57:21;;;;;;;7.32;2.35;;;;;;;;;;5037306;28;20029;-22
2022/10/01 10:59:58;;;;;;;7.03;1.95;;;;;;;;;;5036890;28;20025;-22
2022/10/01 11:02:24;;;;;;;13.93;2.03;;;;;;;;;;5037064;28;20037;-22
2022/10/01 11:04:52;;;;;;;7.63;1.73;;;;;;;;;;5036641;28;20371;-22
2022/10/01 11:07:20;;;;;;;15.27;2.30;;;;;;;;;;5037044;28;20029;-23
2022/10/01 11:09:58;;;;;;;8.90;2.72;;;;;;;;;;5036979;28;20119;-24
2022/10/01 11:12:29;;;;;;;8.07;2.72;;;;;;;;;;5019193;28;20183;-24
2022/10/01 11:15:06;;;;;;;6.65;1.60;;;;;;;;;;5036819;28;20077;-23
2022/10/01 11:17:49;;;;;;;6.80;2.15;;;;;;;;;;5036609;28;20071;-23
2022/10/01 11:20:15;;;;;;;15.45;2.47;;;;;;;;;;5036874;28;20025;-23
2022/10/01 11:22:53;;;;;;;10.18;2.30;;;;;;;;;;5036758;28;20435;-23
2022/10/01 11:25:27;;;;;;;9.90;2.13;;;;;;;;;;5037000;28;20026;-23
2022/10/01 11:27:56;;;;;;;15.55;2.88;;;;;;;;;;5036698;28;20021;-23
2022/10/01 11:30:24;;;;;;;12.48;2.17;;;;;;;;;;5036253;28;20132;-24
2022/10/01 11:33:09;;;;;;;11.93;2.00;;;;;;;;;;5036201;28;20033;-22
2022/10/01 11:35:42;;;;;;;5.60;1.75;;;;;;;;;;5035971;28;20052;-23
2022/10/01 11:38:21;;;;;;;8.73;2.78;;;;;;;;;;5035617;28;20095;-23
2022/10/01 11:40:53;;;;;;;4.72;1.63;;;;;;;;;;5036052;28;20061;-23
2022/10/01 11:43:32;;;;;;;11.20;2.13;;;;;;;;;;5035963;28;20141;-23
2022/10/01 11:46:16;;;;;;;8.13;1.92;;;;;;;;;;5036122;28;20488;-24
2022/10/01 11:48:48;;;;;;;5.93;2.40;;;;;;;;;;5035998;28;20087;-24
2022/10/01 11:51:19;;;;;;;4.75;1.80;;;;;;;;;;5036117;28;20129;-23
2022/10/01 11:53:55;;;;;;;13.93;2.05;;;;;;;;;;5035772;28;20481;-26
2022/10/01 11:59:32;;;;;;;17.58;1.85;;;;;;;;;;5036282;28;20183;-24
2022/10/01 12:02:36;;;;;;;10.80;2.38;;;;;;;;;;5035530;28;20112;-24
2022/10/01 12:05:05;;;;;;;19.73;2.20;;;;;;;;;;4936617;29;20389;-21
2022/10/01 12:07:37;;;;;;;6.28;2.35;;;;;;;;;;4936756;29;20043;-24
2022/10/01 12:10:10;;;;;;;6.22;2.78;;;;;;;;;;4990019;28;20033;-23
2022/10/01 12:12:42;;;;;;;12.52;1.95;;;;;;;;;;5035522;28;20108;-23
2022/10/01 12:15:11;;;;;;;13.88;2.10;;;;;;;;;;5035353;28;20402;-23
2022/10/01 12:17:40;;;;;;;5.50;1.83;;;;;;;;;;5035938;28;20025;-23
2022/10/01 12:20:15;;;;;;;7.32;1.63;;;;;;;;;;5035326;28;20033;-24
2022/10/01 12:22:41;;;;;;;9.75;2.70;;;;;;;;;;5035575;28;20442;-24
2022/10/01 12:25:12;;;;;;;16.73;3.10;;;;;;;;;;5035423;28;20025;-24
2022/10/01 12:27:48;;;;;;;11.37;2.43;;;;;;;;;;5035745;28;20524;-22
2022/10/01 12:30:21;;;;;;;6.28;2.75;;;;;;;;;;5035725;28;20026;-26
2022/10/01 12:32:54;;;;;;;5.45;1.88;;;;;;;;;;5035233;28;20036;-23
2022/10/01 12:35:20;;;;;;;7.82;2.15;;;;;;;;;;5035113;28;20022;-22
2022/10/01 12:38:05;;;;;;;6.93;1.65;;;;;;;;;;5035117;28;20038;-22
2022/10/01 12:40:31;;;;;;;7.07;1.75;;;;;;;;;;5035026;28;20037;-23
2022/10/01 12:43:13;;;;;;;6.95;2.63;;;;;;;;;;5035424;28;20029;-22
2022/10/01 12:45:39;;;;;;;4.35;1.90;;;;;;;;;;5035280;28;20490;-23
2022/10/01 12:48:09;;;;;;;8.00;2.35;;;;;;;;;;5034688;28;20102;-23
2022/10/01 12:50:44;;;;;;;10.65;1.85;;;;;;;;;;5034804;28;20099;-23
2022/10/01 12:53:19;;;;;;;12.43;1.90;;;;;;;;;;5034796;28;20037;-22
2022/10/01 12:55:54;;;;;;;10.40;1.75;;;;;;;;;;5034988;28;20080;-24
2022/10/01 12:58:29;;;;;;;5.30;1.63;;;;;;;;;;5034795;28;20029;-25
2022/10/01 13:00:58;;;;;;;11.77;1.90;;;;;;;;;;5035057;28;20087;-22
2022/10/01 13:03:24;;;;;;;6.75;1.98;;;;;;;;;;5034557;28;20055;-23
2022/10/01 13:05:51;;;;;;;6.20;2.10;;;;;;;;;;5034671;28;20029;-22
2022/10/01 13:08:17;;;;;;;14.43;2.35;;;;;;;;;;5034861;28;20029;-24
2022/10/01 13:10:57;;;;;;;7.47;1.88;;;;;;;;;;5034887;28;20442;-22
2022/10/01 13:13:32;;;;;;;20.25;4.20;;;;;;;;;;5034838;28;20033;-22
2022/10/01 13:16:16;;;;;;;9.88;2.03;;;;;;;;;;5034790;28;20033;-22
2022/10/01 13:19:03;;;;;;;10.35;1.80;;;;;;;;;;5034555;28;20037;-22
2022/10/01 13:21:31;;;;;;;10.68;1.98;;;;;;;;;;5017888;28;20481;-23
2022/10/01 13:24:03;;;;;;;7.47;2.10;;;;;;;;;;5034419;28;20377;-23
2022/10/01 13:26:33;;;;;;;9.43;1.70;;;;;;;;;;5034761;28;20035;-23
2022/10/01 13:28:59;;;;;;;10.57;2.03;;;;;;;;;;5034770;28;20037;-22
2022/10/01 13:31:34;;;;;;;12.75;1.98;;;;;;;;;;5034328;28;20029;-23
2022/10/01 13:34:01;;;;;;;8.40;1.92;;;;;;;;;;5034186;28;20052;-22
2022/10/01 13:36:31;;;;;;;8.38;2.55;;;;;;;;;;5034902;28;20109;-23
2022/10/01 13:38:58;;;;;;;10.23;2.03;;;;;;;;;;5034286;28;20061;-22
2022/10/01 13:41:24;;;;;;;12.43;2.80;;;;;;;;;;5034376;28;20047;-23
2022/10/01 13:43:59;;;;;;;11.55;1.83;;;;;;;;;;5034790;28;20320;-23
2022/10/01 13:46:27;;;;;;;11.57;2.00;;;;;;;;;;5034416;28;20570;-25
2022/10/01 13:48:54;;;;;;;5.78;1.63;;;;;;;;;;5034494;28;20018;-22
2022/10/01 13:51:20;;;;;;;7.20;2.40;;;;;;;;;;5034249;28;20384;-22
2022/10/01 13:53:54;;;;;;;6.53;2.33;;;;;;;;;;5034420;28;20355;-22
2022/10/01 13:56:33;;;;;;;9.07;2.38;;;;;;;;;;5034154;28;20470;-24
2022/10/01 13:58:59;;;;;;;9.77;3.15;;;;;;;;;;5034160;28;20025;-22
2022/10/01 14:01:46;;;;;;;12.10;2.92;;;;;;;;;;5019684;28;20052;-24
2022/10/01 14:04:18;;;;;;;7.00;2.58;;;;;;;;;;5037880;28;20111;-23
2022/10/01 14:06:50;;;;;;;11.18;2.17;;;;;;;;;;5038217;28;20033;-22
2022/10/01 14:09:19;;;;;;;11.27;2.33;;;;;;;;;;5038214;28;20033;-25
2022/10/01 14:17:34;;;;;;;9.57;2.55;;;;;;;;;;5038386;28;20485;-22
2022/10/01 14:20:01;;;;;;;19.48;3.05;;;;;;;;;;5037791;28;20412;-22
2022/10/01 14:22:33;;;;;;;6.95;2.35;;;;;;;;;;5020181;28;20040;-22
2022/10/01 14:25:21;;;;;;;5.05;1.73;;;;;;;;;;5020215;28;20036;-22
2022/10/01 14:27:47;;;;;;;10.82;1.73;;;;;;;;;;5037866;28;20033;-22
2022/10/01 14:30:19;;;;;;;4.93;2.65;;;;;;;;;;5020084;28;20029;-22
2022/10/01 14:32:57;;;;;;;7.30;2.30;;;;;;;;;;5037361;28;20048;-23
2022/10/01 14:35:44;;;;;;;11.70;2.75;;;;;;;;;;5037265;28;20033;-22
2022/10/01 14:38:12;;;;;;;8.07;2.80;;;;;;;;;;5037690;28;20045;-22
2022/10/01 14:40:39;;;;;;;14.82;2.75;;;;;;;;;;5037867;28;20332;-24
2022/10/01 14:43:20;;;;;;;8.73;3.22;;;;;;;;;;5037182;28;20108;-23
2022/10/01 14:46:12;;;;;;;5.65;1.92;;;;;;;;;;5020308;28;20022;-24
2022/10/01 14:48:39;;;;;;;5.25;1.85;;;;;;;;;;5033633;28;20383;-27
2022/10/01 14:51:06;;;;;;;8.60;2.25;;;;;;;;;;5037032;28;20099;-22
2022/10/01 14:53:37;;;;;;;3.60;1.60;;;;;;;;;;5037114;28;20458;-23
2022/10/01 14:56:07;;;;;;;6.03;1.87;;;;;;;;;;5037214;28;20355;-21
2022/10/01 14:58:53;;;;;;;7.20;1.70;;;;;;;;;;5036951;28;20313;-23
2022/10/01 15:01:21;;;;;;;5.40;2.35;;;;;;;;;;5036746;28;20030;-24